createdAt,value
2022-12-11T00:02:08.983Z,84.24
2022-12-11T00:04:35.673Z,84.22
2022-12-11T00:07:02.039Z,84.76
2022-12-11T00:09:29.575Z,85.59
2022-12-11T00:11:56.196Z,85.13
2022-12-11T00:14:22.569Z,85.28
2022-12-11T00:16:49.001Z,85.30
2022-12-11T00:19:15.939Z,85.49
2022-12-11T00:21:42.327Z,85.17
2022-12-11T00:24:08.760Z,84.78
2022-12-11T00:26:35.115Z,84.80
2022-12-11T00:29:01.619Z,84.37
2022-12-11T00:31:28.085Z,84.45
2022-12-11T00:33:54.564Z,84.27
2022-12-11T00:36:24.769Z,84.14
2022-12-11T00:38:52.565Z,84.00
2022-12-11T00:41:19.326Z,84.34
2022-12-11T00:43:46.315Z,84.58
2022-12-11T00:46:13.022Z,85.07
2022-12-11T00:48:39.774Z,84.42
2022-12-11T00:51:06.873Z,84.43
2022-12-11T00:53:33.381Z,83.88
2022-12-11T00:55:59.760Z,83.38
2022-12-11T00:58:26.127Z,83.92
2022-12-11T01:00:53.831Z,83.92
2022-12-11T01:03:20.232Z,83.89
2022-12-11T01:05:54.135Z,83.39
2022-12-11T01:08:20.732Z,84.68
2022-12-11T01:10:47.580Z,85.32
2022-12-11T01:13:14.144Z,85.57
2022-12-11T01:15:43.385Z,85.15
2022-12-11T01:18:11.494Z,84.48
2022-12-11T01:20:39.466Z,83.99
2022-12-11T01:23:06.261Z,83.41
2022-12-11T01:25:32.864Z,83.66
2022-12-11T01:27:59.602Z,84.08
2022-12-11T01:30:26.492Z,83.77
2022-12-11T01:32:52.981Z,83.45
2022-12-11T01:35:19.773Z,83.86
2022-12-11T01:37:47.704Z,83.65
2022-12-11T01:40:16.970Z,83.93
2022-12-11T01:42:43.457Z,84.07
2022-12-11T01:45:22.510Z,84.46
2022-12-11T01:47:54.036Z,85.14
2022-12-11T01:50:20.648Z,84.88
2022-12-11T01:52:48.922Z,84.80
2022-12-11T01:55:15.913Z,84.88
2022-12-11T01:57:45.116Z,85.33
2022-12-11T02:00:11.970Z,85.48
2022-12-11T02:02:38.411Z,85.09
2022-12-11T02:05:06.672Z,84.70
2022-12-11T02:07:39.999Z,85.13
2022-12-11T02:10:07.326Z,84.94
2022-12-11T02:12:45.905Z,84.58
2022-12-11T02:15:21.571Z,84.57
2022-12-11T02:18:13.888Z,84.75
2022-12-11T02:20:52.011Z,84.64
2022-12-11T02:23:43.920Z,84.93
2022-12-11T02:26:22.208Z,84.52
2022-12-11T02:28:58.869Z,84.86
2022-12-11T02:31:51.402Z,85.35
2022-12-11T02:34:32.789Z,86.47
2022-12-11T02:37:03.973Z,86.62
2022-12-11T02:39:33.504Z,86.20
2022-12-11T02:42:00.769Z,86.17
2022-12-11T02:44:30.660Z,85.75
2022-12-11T02:46:58.303Z,86.02
2022-12-11T02:49:26.285Z,85.98
2022-12-11T02:51:56.530Z,86.34
2022-12-11T02:54:30.049Z,87.70
2022-12-11T02:57:08.902Z,87.90
2022-12-11T02:59:39.139Z,87.52
2022-12-11T03:02:05.857Z,87.68
2022-12-11T03:04:34.961Z,87.58
2022-12-11T03:07:04.952Z,87.75
2022-12-11T03:09:31.940Z,87.74
2022-12-11T03:11:58.348Z,88.11
2022-12-11T03:14:24.737Z,87.93
2022-12-11T03:17:03.730Z,87.85
2022-12-11T03:19:36.552Z,87.64
2022-12-11T03:22:07.296Z,87.66
2022-12-11T03:25:00.633Z,87.75
2022-12-11T03:27:36.659Z,88.17
2022-12-11T03:30:11.605Z,88.14
2022-12-11T03:32:48.924Z,88.71
2022-12-11T03:35:24.597Z,88.96
2022-12-11T03:37:52.985Z,88.73
2022-12-11T03:40:21.735Z,88.80
2022-12-11T03:42:52.331Z,88.78
2022-12-11T03:45:21.859Z,89.17
2022-12-11T03:47:50.332Z,89.50
2022-12-11T03:50:18.504Z,89.39
2022-12-11T03:52:46.981Z,89.65
2022-12-11T03:55:16.530Z,90.14
2022-12-11T03:57:43.380Z,90.14
2022-12-11T04:00:13.714Z,89.84
2022-12-11T04:02:41.344Z,89.65
2022-12-11T04:05:09.175Z,89.97
2022-12-11T04:07:36.424Z,90.44
2022-12-11T04:10:04.721Z,90.21
2022-12-11T04:15:59.037Z,91.01
2022-12-11T04:18:25.422Z,91.55
2022-12-11T04:20:55.573Z,91.46
2022-12-11T04:23:21.943Z,91.38
2022-12-11T04:25:48.328Z,91.07
2022-12-11T04:28:14.721Z,91.43
2022-12-11T04:30:41.137Z,91.32
2022-12-11T04:33:07.552Z,91.65
2022-12-11T04:35:34.016Z,91.75
2022-12-11T04:38:00.371Z,92.00
2022-12-11T04:40:26.844Z,91.71
2022-12-11T04:46:25.193Z,92.54
2022-12-11T04:48:57.350Z,93.07
2022-12-11T04:51:24.756Z,93.19
2022-12-11T04:53:51.148Z,93.17
2022-12-11T04:56:17.611Z,93.34
2022-12-11T04:58:44.994Z,93.32
2022-12-11T05:01:14.201Z,93.43
2022-12-11T05:03:41.684Z,94.01
2022-12-11T05:06:09.854Z,94.23
2022-12-11T05:08:38.688Z,94.21
2022-12-11T05:11:07.840Z,94.35
2022-12-11T05:13:34.239Z,94.17
2022-12-11T05:16:03.140Z,93.85
2022-12-11T05:18:29.578Z,93.76
2022-12-11T05:21:01.231Z,93.83
2022-12-11T05:23:28.251Z,93.80
2022-12-11T05:25:56.373Z,93.88
2022-12-11T05:28:23.463Z,94.15
2022-12-11T05:30:58.153Z,94.40
2022-12-11T05:33:25.659Z,94.15
2022-12-11T05:35:52.386Z,94.21
2022-12-11T05:38:19.075Z,94.26
2022-12-11T05:40:45.549Z,94.32
2022-12-11T05:43:11.885Z,94.41
2022-12-11T05:45:38.239Z,94.55
2022-12-11T05:48:04.726Z,94.83
2022-12-11T05:50:31.085Z,94.87
2022-12-11T05:52:57.396Z,94.85
2022-12-11T05:55:23.763Z,94.66
2022-12-11T05:57:50.109Z,94.51
2022-12-11T06:00:16.560Z,94.71
2022-12-11T06:02:43.031Z,94.85
2022-12-11T06:05:09.808Z,94.72
2022-12-11T06:07:36.234Z,94.39
2022-12-11T06:10:02.623Z,94.24
2022-12-11T06:12:28.954Z,94.33
2022-12-11T06:14:55.330Z,94.49
2022-12-11T06:17:21.643Z,94.31
2022-12-11T06:19:49.120Z,94.40
2022-12-11T06:22:15.466Z,94.14
2022-12-11T06:24:41.822Z,94.29
2022-12-11T06:27:08.142Z,94.38
2022-12-11T06:29:34.523Z,94.42
2022-12-11T06:32:00.950Z,94.06
2022-12-11T06:34:27.482Z,94.10
2022-12-11T06:36:53.801Z,93.90
2022-12-11T06:39:20.160Z,93.77
2022-12-11T06:41:46.542Z,93.83
2022-12-11T06:44:12.882Z,93.94
2022-12-11T06:46:39.215Z,94.34
2022-12-11T06:49:05.570Z,94.22
2022-12-11T06:51:31.907Z,94.31
2022-12-11T06:53:58.267Z,94.39
2022-12-11T06:56:25.257Z,94.64
2022-12-11T06:58:52.583Z,94.82
2022-12-11T07:01:25.058Z,95.00
2022-12-11T07:03:55.993Z,94.61
2022-12-11T07:06:23.304Z,94.07
2022-12-11T07:08:49.812Z,94.06
2022-12-11T07:11:17.381Z,93.33
2022-12-11T07:13:44.133Z,93.12
2022-12-11T07:16:12.872Z,93.48
2022-12-11T07:18:41.187Z,93.57
2022-12-11T07:21:09.596Z,93.82
2022-12-11T07:23:36.071Z,93.54
2022-12-11T07:26:08.402Z,92.87
2022-12-11T07:28:35.567Z,92.36
2022-12-11T07:31:09.965Z,92.43
2022-12-11T07:33:36.876Z,92.24
2022-12-11T07:36:05.397Z,91.68
2022-12-11T07:38:32.456Z,90.67
2022-12-11T07:41:03.338Z,90.73
2022-12-11T07:43:29.706Z,90.00
2022-12-11T07:46:01.154Z,89.23
2022-12-11T07:48:27.502Z,89.92
2022-12-11T07:50:53.851Z,89.93
2022-12-11T07:53:20.199Z,89.58
2022-12-11T07:55:46.656Z,88.92
2022-12-11T07:58:13.017Z,88.75
2022-12-11T08:00:39.396Z,89.59
2022-12-11T08:03:05.759Z,89.97
2022-12-11T08:05:32.123Z,90.80
2022-12-11T08:07:58.528Z,90.45
2022-12-11T08:10:25.094Z,89.81
2022-12-11T08:12:51.529Z,89.61
2022-12-11T08:15:18.025Z,89.14
2022-12-11T08:17:44.375Z,88.18
2022-12-11T08:20:10.718Z,87.84
2022-12-11T08:22:37.036Z,87.35
2022-12-11T08:25:03.640Z,86.45
2022-12-11T08:27:29.949Z,85.75
2022-12-11T08:29:56.272Z,86.17
2022-12-11T08:32:22.619Z,86.86
2022-12-11T08:34:51.094Z,87.49
2022-12-11T08:37:17.381Z,87.13
2022-12-11T08:39:43.669Z,85.84
2022-12-11T08:42:10.000Z,85.61
2022-12-11T08:44:36.327Z,85.47
2022-12-11T08:47:02.710Z,85.32
2022-12-11T08:49:34.170Z,84.79
2022-12-11T08:52:01.090Z,84.90
2022-12-11T08:54:27.458Z,84.28
2022-12-11T08:56:57.943Z,83.72
2022-12-11T08:59:25.158Z,83.30
2022-12-11T09:01:52.337Z,82.75
2022-12-11T09:04:18.713Z,82.81
2022-12-11T09:06:45.056Z,82.76
2022-12-11T09:09:11.382Z,82.73
2022-12-11T09:11:37.718Z,82.80
2022-12-11T09:14:07.543Z,82.92
2022-12-11T09:16:35.414Z,82.56
2022-12-11T09:19:01.763Z,82.34
2022-12-11T09:21:29.558Z,81.96
2022-12-11T09:23:58.696Z,82.14
2022-12-11T09:26:26.328Z,81.27
2022-12-11T09:28:53.321Z,80.69
2022-12-11T09:31:22.832Z,80.56
2022-12-11T09:33:50.370Z,80.12
2022-12-11T09:36:16.687Z,79.96
2022-12-11T09:38:43.059Z,80.43
2022-12-11T09:41:32.557Z,81.24
2022-12-11T09:44:05.091Z,81.17
2022-12-11T09:46:34.312Z,81.06
2022-12-11T09:49:03.205Z,80.41
2022-12-11T09:51:51.886Z,79.66
2022-12-11T09:54:18.243Z,79.96
2022-12-11T09:56:56.382Z,80.35
2022-12-11T09:59:31.479Z,81.04
2022-12-11T10:02:13.194Z,81.31
2022-12-11T10:04:58.152Z,79.53
2022-12-11T10:07:59.717Z,77.79
2022-12-11T10:10:51.474Z,78.75
2022-12-11T10:14:01.761Z,78.69
2022-12-11T10:16:45.151Z,79.00
2022-12-11T10:19:18.506Z,84.42
2022-12-11T10:21:46.555Z,85.56
2022-12-11T10:25:10.741Z,83.48
2022-12-11T10:27:40.561Z,81.22
2022-12-11T10:30:12.955Z,80.19
2022-12-11T10:32:50.418Z,79.51
2022-12-11T10:35:38.284Z,79.46
2022-12-11T10:38:14.971Z,80.23
2022-12-11T10:40:45.365Z,79.43
2022-12-11T10:43:12.582Z,79.06
2022-12-11T10:45:39.397Z,79.20
2022-12-11T10:48:14.772Z,82.52
2022-12-11T10:50:44.833Z,85.32
2022-12-11T10:53:21.845Z,87.42
2022-12-11T10:55:49.025Z,85.80
2022-12-11T10:58:19.638Z,81.54
2022-12-11T11:00:46.849Z,86.48
2022-12-11T11:03:23.468Z,85.21
2022-12-11T11:05:50.391Z,81.78
2022-12-11T11:08:21.855Z,80.05
2022-12-11T11:10:55.989Z,79.92
2022-12-11T11:13:25.296Z,79.46
2022-12-11T11:16:13.333Z,83.65
2022-12-11T11:18:41.490Z,82.76
2022-12-11T11:21:16.820Z,82.24
2022-12-11T11:23:46.366Z,83.66
2022-12-11T11:26:17.903Z,85.52
2022-12-11T11:28:54.445Z,82.21
2022-12-11T11:31:30.270Z,79.55
2022-12-11T11:34:07.946Z,83.72
2022-12-11T11:36:36.504Z,83.55
2022-12-11T11:39:17.073Z,87.44
2022-12-11T11:41:55.796Z,85.38
2022-12-11T11:44:31.018Z,82.00
2022-12-11T11:47:22.280Z,82.26
2022-12-11T11:50:08.072Z,82.41
2022-12-11T11:52:41.692Z,83.22
2022-12-11T11:55:18.708Z,83.64
2022-12-11T11:57:58.441Z,83.45
2022-12-11T12:00:31.869Z,83.70
2022-12-11T12:03:08.594Z,83.99
2022-12-11T12:06:04.048Z,83.30
2022-12-11T12:08:48.741Z,83.46
2022-12-11T12:11:40.457Z,84.07
2022-12-11T12:17:25.161Z,84.50
2022-12-11T12:20:01.898Z,84.51
2022-12-11T12:22:43.650Z,84.41
2022-12-11T12:25:36.551Z,84.21
2022-12-11T12:28:15.713Z,84.51
2022-12-11T12:30:50.974Z,84.17
2022-12-11T12:33:36.776Z,84.29
2022-12-11T12:36:16.730Z,84.01
2022-12-11T12:38:57.820Z,83.84
2022-12-11T12:41:48.638Z,82.95
2022-12-11T12:44:18.103Z,83.52
2022-12-11T12:46:53.724Z,83.37
2022-12-11T12:49:25.458Z,83.90
2022-12-11T12:51:52.686Z,84.31
2022-12-11T12:54:21.481Z,84.07
2022-12-11T12:56:48.968Z,84.11
2022-12-11T12:59:26.510Z,84.44
2022-12-11T13:01:58.835Z,84.12
2022-12-11T13:04:55.841Z,83.91
2022-12-11T13:07:26.912Z,84.21
2022-12-11T13:09:58.209Z,83.36
2022-12-11T13:12:33.702Z,83.16
2022-12-11T13:15:00.753Z,84.45
2022-12-11T13:17:37.471Z,84.61
2022-12-11T13:20:13.673Z,83.30
2022-12-11T13:23:05.607Z,83.66
2022-12-11T13:25:44.846Z,83.96
2022-12-11T13:28:48.233Z,83.77
2022-12-11T13:31:14.603Z,83.05
2022-12-11T13:33:49.802Z,83.50
2022-12-11T13:36:37.055Z,83.92
2022-12-11T13:39:16.787Z,84.46
2022-12-11T13:41:47.090Z,83.36
2022-12-11T13:44:23.942Z,82.87
2022-12-11T13:46:52.822Z,82.57
2022-12-11T13:49:33.221Z,82.93
2022-12-11T13:52:00.699Z,84.21
2022-12-11T13:54:29.041Z,83.87
2022-12-11T13:57:14.918Z,82.70
2022-12-11T13:59:43.638Z,83.49
2022-12-11T14:02:19.025Z,83.87
2022-12-11T14:04:47.510Z,83.81
2022-12-11T14:07:22.299Z,83.87
2022-12-11T14:09:48.602Z,84.29
2022-12-11T14:12:21.495Z,84.33
2022-12-11T14:14:55.635Z,82.84
2022-12-11T14:17:27.729Z,82.61
2022-12-11T14:19:56.812Z,83.08
2022-12-11T14:22:26.978Z,85.20
2022-12-11T14:24:58.535Z,86.18
2022-12-11T14:27:26.241Z,87.25
2022-12-11T14:29:53.348Z,87.38
2022-12-11T14:32:34.914Z,85.93
2022-12-11T14:35:05.796Z,85.14
2022-12-11T14:37:34.379Z,85.29
2022-12-11T14:40:09.146Z,85.59
2022-12-11T14:42:40.895Z,85.68
2022-12-11T14:45:09.383Z,85.52
2022-12-11T14:47:42.841Z,86.06
2022-12-11T14:50:35.388Z,88.53
2022-12-11T14:53:13.226Z,89.41
2022-12-11T14:55:40.574Z,89.34
2022-12-11T14:58:14.302Z,88.35
2022-12-11T15:00:40.727Z,87.84
2022-12-11T15:03:22.110Z,87.73
2022-12-11T15:05:56.549Z,86.53
2022-12-11T15:08:32.423Z,86.77
2022-12-11T15:11:07.636Z,87.62
2022-12-11T15:13:37.096Z,87.69
2022-12-11T15:16:06.702Z,87.82
2022-12-11T15:18:36.166Z,86.74
2022-12-11T15:21:04.923Z,86.21
2022-12-11T15:23:31.309Z,85.64
2022-12-11T15:26:02.236Z,84.94
2022-12-11T15:28:34.355Z,85.12
2022-12-11T15:31:04.672Z,85.58
2022-12-11T15:33:34.612Z,86.22
2022-12-11T15:36:05.457Z,86.76
2022-12-11T15:38:37.432Z,87.75
2022-12-11T15:41:04.115Z,88.26
2022-12-11T15:43:34.423Z,88.47
2022-12-11T15:46:02.089Z,88.29
2022-12-11T15:48:28.532Z,88.21
2022-12-11T15:50:54.881Z,89.03
2022-12-11T15:53:21.221Z,89.73
2022-12-11T15:55:47.776Z,90.12
2022-12-11T15:58:18.337Z,90.51
2022-12-11T16:00:44.786Z,90.07
2022-12-11T16:03:15.856Z,89.51
2022-12-11T16:05:42.380Z,89.38
2022-12-11T16:08:13.182Z,90.04
2022-12-11T16:10:39.525Z,90.67
2022-12-11T16:13:05.834Z,90.96
2022-12-11T16:15:32.247Z,90.70
2022-12-11T16:18:00.881Z,89.93
2022-12-11T16:20:27.258Z,88.60
2022-12-11T16:22:53.621Z,88.45
2022-12-11T16:25:19.971Z,88.80
2022-12-11T16:27:46.349Z,88.84
2022-12-11T16:30:13.505Z,88.89
2022-12-11T16:32:39.867Z,89.29
2022-12-11T16:35:06.532Z,89.25
2022-12-11T16:37:32.877Z,89.07
2022-12-11T16:39:59.207Z,89.23
2022-12-11T16:42:25.528Z,89.18
2022-12-11T16:44:51.832Z,89.45
2022-12-11T16:47:18.174Z,90.29
2022-12-11T16:49:44.453Z,90.80
2022-12-11T16:52:10.795Z,90.94
2022-12-11T16:54:37.357Z,91.15
2022-12-11T16:57:03.775Z,91.72
2022-12-11T16:59:36.566Z,92.39
2022-12-11T17:02:03.642Z,92.49
2022-12-11T17:04:29.997Z,93.62
2022-12-11T17:06:56.297Z,97.53
2022-12-11T17:09:22.642Z,99.10
2022-12-11T17:11:49.354Z,99.07
2022-12-11T17:14:15.666Z,97.54
2022-12-11T17:16:41.989Z,95.75
2022-12-11T17:19:08.607Z,95.49
2022-12-11T17:21:34.905Z,94.55
2022-12-11T17:24:01.229Z,93.39
2022-12-11T17:26:27.830Z,92.95
2022-12-11T17:28:55.925Z,92.97
2022-12-11T17:31:22.316Z,92.98
2022-12-11T17:33:48.801Z,96.42
2022-12-11T17:36:17.911Z,97.56
2022-12-11T17:38:44.812Z,96.07
2022-12-11T17:41:18.524Z,92.91
2022-12-11T17:43:47.329Z,93.20
2022-12-11T17:46:14.237Z,91.17
2022-12-11T17:48:40.782Z,91.43
2022-12-11T17:51:08.857Z,91.40
2022-12-11T17:53:35.568Z,91.45
2022-12-11T17:56:04.339Z,90.90
2022-12-11T17:58:30.886Z,89.92
2022-12-11T18:00:58.363Z,90.26
2022-12-11T18:03:27.839Z,90.44
2022-12-11T18:05:56.140Z,90.24
2022-12-11T18:08:25.584Z,89.50
2022-12-11T18:10:53.094Z,89.24
2022-12-11T18:13:20.214Z,89.13
2022-12-11T18:15:46.575Z,88.01
2022-12-11T18:18:12.993Z,86.79
2022-12-11T18:20:39.402Z,86.98
2022-12-11T18:23:06.069Z,87.83
2022-12-11T18:25:32.441Z,86.94
2022-12-11T18:27:58.915Z,87.33
2022-12-11T18:30:25.717Z,87.08
2022-12-11T18:32:52.352Z,86.25
2022-12-11T18:35:18.762Z,85.88
2022-12-11T18:37:45.094Z,86.56
2022-12-11T18:40:11.842Z,86.64
2022-12-11T18:42:38.487Z,86.01
2022-12-11T18:45:05.737Z,85.98
2022-12-11T18:47:32.252Z,86.55
2022-12-11T18:50:03.928Z,86.88
2022-12-11T18:52:33.990Z,86.66
2022-12-11T18:55:00.387Z,86.72
2022-12-11T18:57:26.713Z,87.37
2022-12-11T18:59:53.544Z,87.02
2022-12-11T19:02:20.917Z,87.27
2022-12-11T19:04:47.344Z,87.95
2022-12-11T19:07:13.746Z,86.53
2022-12-11T19:09:44.835Z,85.73
2022-12-11T19:12:14.067Z,86.94
2022-12-11T19:14:40.380Z,86.91
2022-12-11T19:17:06.805Z,87.20
2022-12-11T19:19:33.159Z,87.49
2022-12-11T19:21:59.497Z,88.28
2022-12-11T19:24:25.824Z,88.37
2022-12-11T19:26:52.524Z,87.52
2022-12-11T19:29:21.960Z,87.24
2022-12-11T19:31:48.368Z,87.20
2022-12-11T19:34:15.554Z,87.89
2022-12-11T19:36:41.868Z,88.68
2022-12-11T19:39:12.763Z,88.88
2022-12-11T19:41:40.070Z,88.75
2022-12-11T19:44:06.633Z,89.06
2022-12-11T19:46:33.272Z,88.53
2022-12-11T19:49:00.098Z,88.48
2022-12-11T19:51:32.329Z,89.14
2022-12-11T19:53:59.280Z,89.09
2022-12-11T19:56:26.128Z,88.30
2022-12-11T19:58:52.473Z,88.06
2022-12-11T20:01:28.201Z,87.48
2022-12-11T20:03:57.191Z,86.89
2022-12-11T20:06:24.072Z,86.57
2022-12-11T20:08:50.573Z,86.44
2022-12-11T20:11:18.951Z,86.57
2022-12-11T20:13:48.390Z,87.15
2022-12-11T20:16:16.765Z,86.86
2022-12-11T20:18:43.244Z,87.22
2022-12-11T20:21:12.908Z,87.81
2022-12-11T20:23:39.284Z,87.75
2022-12-11T20:26:07.863Z,87.44
2022-12-11T20:28:34.317Z,87.79
2022-12-11T20:31:09.161Z,87.86
2022-12-11T20:33:35.792Z,87.92
2022-12-11T20:36:06.826Z,88.18
2022-12-11T20:38:34.636Z,88.71
2022-12-11T20:41:01.091Z,89.96
2022-12-11T20:43:27.435Z,90.90
2022-12-11T20:45:53.854Z,91.78
2022-12-11T20:48:20.227Z,91.94
2022-12-11T20:50:46.616Z,92.01
2022-12-11T20:53:13.011Z,91.70
2022-12-11T20:55:40.721Z,91.31
2022-12-11T20:58:07.556Z,91.25
2022-12-11T21:00:36.999Z,91.24
2022-12-11T21:03:04.180Z,91.59
2022-12-11T21:05:31.556Z,91.86
2022-12-11T21:07:57.935Z,92.31
2022-12-11T21:10:24.306Z,92.89
2022-12-11T21:12:50.674Z,92.70
2022-12-11T21:15:17.037Z,92.29
2022-12-11T21:17:43.404Z,91.74
2022-12-11T21:20:10.202Z,91.27
2022-12-11T21:22:36.522Z,90.80
2022-12-11T21:25:03.291Z,90.03
2022-12-11T21:27:29.630Z,89.11
2022-12-11T21:29:56.008Z,88.87
2022-12-11T21:32:22.518Z,89.03
2022-12-11T21:34:50.549Z,88.96
2022-12-11T21:37:17.359Z,88.92
2022-12-11T21:39:43.699Z,88.39
2022-12-11T21:42:10.046Z,88.08
2022-12-11T21:47:25.735Z,87.79
2022-12-11T21:49:52.093Z,87.66
2022-12-11T21:52:18.416Z,88.07
2022-12-11T21:54:44.794Z,88.29
2022-12-11T21:57:11.225Z,87.81
2022-12-11T21:59:37.572Z,87.30
2022-12-11T22:02:04.020Z,87.45
2022-12-11T22:04:30.412Z,87.28
2022-12-11T22:06:56.786Z,87.48
2022-12-11T22:09:23.253Z,86.40
2022-12-11T22:11:53.694Z,86.14
2022-12-11T22:14:22.937Z,85.52
2022-12-11T22:16:49.467Z,85.53
2022-12-11T22:19:15.881Z,86.70
2022-12-11T22:21:42.401Z,86.38
2022-12-11T22:24:08.810Z,86.15
2022-12-11T22:26:35.153Z,86.33
2022-12-11T22:29:01.453Z,86.07
2022-12-11T22:31:27.857Z,86.28
2022-12-11T22:33:54.927Z,86.42
2022-12-11T22:36:23.464Z,86.90
2022-12-11T22:38:49.780Z,87.23
2022-12-11T22:41:22.969Z,86.60
2022-12-11T22:43:50.271Z,86.34
2022-12-11T22:46:18.600Z,86.72
2022-12-11T22:48:44.909Z,87.09
2022-12-11T22:51:11.615Z,87.19
2022-12-11T22:53:38.019Z,87.58
2022-12-11T22:56:09.292Z,87.99
2022-12-11T22:58:35.788Z,88.01
2022-12-11T23:01:03.307Z,87.02
2022-12-11T23:03:29.772Z,86.54
2022-12-11T23:05:56.823Z,86.39
2022-12-11T23:08:25.239Z,86.20
2022-12-11T23:10:52.207Z,86.30
2022-12-11T23:13:18.528Z,86.65
2022-12-11T23:15:44.826Z,86.61
2022-12-11T23:18:11.150Z,85.80
2022-12-11T23:20:37.490Z,85.76
2022-12-11T23:23:03.827Z,86.07
2022-12-11T23:25:30.154Z,86.23
2022-12-11T23:27:56.456Z,86.30
2022-12-11T23:30:22.873Z,86.53
2022-12-11T23:32:49.240Z,86.55
2022-12-11T23:35:15.673Z,86.60
2022-12-11T23:37:42.108Z,86.65
2022-12-11T23:40:09.383Z,87.44
2022-12-11T23:42:35.779Z,88.17
2022-12-11T23:45:02.121Z,87.69
2022-12-11T23:47:28.464Z,88.29
2022-12-11T23:49:54.802Z,87.85
2022-12-11T23:52:21.135Z,87.72
2022-12-11T23:54:47.456Z,88.17
2022-12-11T23:57:13.903Z,88.68
2022-12-11T23:59:40.233Z,88.95
